sensor_id;sensor_type;location;lat;lon;timestamp;pressure;altitude;pressure_sealevel;temperature;humidity
59825;BME280;45703;50.898;6.054;2023-04-28T00:02:07;99837.88;;;10.83;74.58
59825;BME280;45703;50.898;6.054;2023-04-28T00:04:34;99834.16;;;10.84;75.09
59825;BME280;45703;50.898;6.054;2023-04-28T00:07:00;99839.50;;;10.84;75.51
59825;BME280;45703;50.898;6.054;2023-04-28T00:09:36;99833.59;;;10.82;75.21
59825;BME280;45703;50.898;6.054;2023-04-28T00:12:04;99824.78;;;10.81;76.11
59825;BME280;45703;50.898;6.054;2023-04-28T00:14:30;99820.22;;;10.82;76.70
59825;BME280;45703;50.898;6.054;2023-04-28T00:16:56;99804.34;;;10.75;77.07
59825;BME280;45703;50.898;6.054;2023-04-28T00:19:24;99810.84;;;10.79;77.50
59825;BME280;45703;50.898;6.054;2023-04-28T00:21:50;99805.16;;;10.76;77.49
59825;BME280;45703;50.898;6.054;2023-04-28T00:24:15;99803.06;;;10.78;77.92
59825;BME280;45703;50.898;6.054;2023-04-28T00:26:40;99805.16;;;10.76;77.34
59825;BME280;45703;50.898;6.054;2023-04-28T00:29:06;99812.94;;;10.77;77.71
59825;BME280;45703;50.898;6.054;2023-04-28T00:31:31;99814.78;;;10.77;78.23
59825;BME280;45703;50.898;6.054;2023-04-28T00:33:56;99811.91;;;10.78;77.71
59825;BME280;45703;50.898;6.054;2023-04-28T00:36:22;99805.16;;;10.76;78.85
59825;BME280;45703;50.898;6.054;2023-04-28T00:38:47;99815.34;;;10.79;79.99
59825;BME280;45703;50.898;6.054;2023-04-28T00:41:12;99792.84;;;10.75;79.71
59825;BME280;45703;50.898;6.054;2023-04-28T00:43:47;99797.50;;;10.79;78.92
59825;BME280;45703;50.898;6.054;2023-04-28T00:46:21;99783.31;;;10.79;79.16
59825;BME280;45703;50.898;6.054;2023-04-28T00:48:48;99792.75;;;10.81;79.33
59825;BME280;45703;50.898;6.054;2023-04-28T00:51:14;99797.25;;;10.81;80.00
59825;BME280;45703;50.898;6.054;2023-04-28T00:53:39;99788.19;;;10.82;80.01
59825;BME280;45703;50.898;6.054;2023-04-28T00:56:06;99786.25;;;10.77;80.27
59825;BME280;45703;50.898;6.054;2023-04-28T00:58:37;99798.28;;;10.80;80.30
59825;BME280;45703;50.898;6.054;2023-04-28T01:01:07;99795.28;;;10.76;80.91
59825;BME280;45703;50.898;6.054;2023-04-28T01:03:42;99792.84;;;10.75;78.96
59825;BME280;45703;50.898;6.054;2023-04-28T01:06:14;99781.81;;;10.71;79.58
59825;BME280;45703;50.898;6.054;2023-04-28T01:08:47;99774.84;;;10.70;79.71
59825;BME280;45703;50.898;6.054;2023-04-28T01:11:13;99774.03;;;10.70;79.30
59825;BME280;45703;50.898;6.054;2023-04-28T01:13:40;99781.00;;;10.71;79.62
59825;BME280;45703;50.898;6.054;2023-04-28T01:16:06;99779.84;;;10.67;80.43
59825;BME280;45703;50.898;6.054;2023-04-28T01:18:33;99781.94;;;10.65;79.70
59825;BME280;45703;50.898;6.054;2023-04-28T01:21:00;99777.28;;;10.60;80.37
59825;BME280;45703;50.898;6.054;2023-04-28T01:30:09;99763.25;;;10.53;82.18
59825;BME280;45703;50.898;6.054;2023-04-28T01:32:35;99769.88;;;10.51;82.74
59825;BME280;45703;50.898;6.054;2023-04-28T01:35:00;99766.63;;;10.49;82.60
59825;BME280;45703;50.898;6.054;2023-04-28T01:37:26;99765.00;;;10.48;82.75
59825;BME280;45703;50.898;6.054;2023-04-28T01:39:51;99767.06;;;10.46;83.10
59825;BME280;45703;50.898;6.054;2023-04-28T01:42:17;99765.09;;;10.41;83.58
59825;BME280;45703;50.898;6.054;2023-04-28T01:44:42;99772.88;;;10.43;83.90
59825;BME280;45703;50.898;6.054;2023-04-28T01:47:07;99762.19;;;10.43;84.46
59825;BME280;45703;50.898;6.054;2023-04-28T01:49:33;99761.59;;;10.41;84.02
59825;BME280;45703;50.898;6.054;2023-04-28T01:51:59;99763.22;;;10.42;84.28
59825;BME280;45703;50.898;6.054;2023-04-28T01:54:24;99762.66;;;10.40;84.02
59825;BME280;45703;50.898;6.054;2023-04-28T01:56:51;99745.59;;;10.41;84.10
59825;BME280;45703;50.898;6.054;2023-04-28T01:59:17;99734.13;;;10.40;84.54
59825;BME280;45703;50.898;6.054;2023-04-28T02:01:44;99739.22;;;10.42;84.32
59825;BME280;45703;50.898;6.054;2023-04-28T02:04:10;99739.22;;;10.42;84.12
59825;BME280;45703;50.898;6.054;2023-04-28T02:06:36;99746.66;;;10.40;83.78
59825;BME280;45703;50.898;6.054;2023-04-28T02:09:02;99748.28;;;10.41;85.18
59825;BME280;45703;50.898;6.054;2023-04-28T02:11:28;99737.59;;;10.41;84.50
59825;BME280;45703;50.898;6.054;2023-04-28T02:13:53;99742.94;;;10.41;84.72
59825;BME280;45703;50.898;6.054;2023-04-28T02:16:20;99733.88;;;10.42;84.24
59825;BME280;45703;50.898;6.054;2023-04-28T02:18:46;99733.88;;;10.42;85.55
59825;BME280;45703;50.898;6.054;2023-04-28T02:21:12;99724.84;;;10.43;86.13
59825;BME280;45703;50.898;6.054;2023-04-28T02:23:43;99721.38;;;10.42;85.59
59825;BME280;45703;50.898;6.054;2023-04-28T02:26:09;99733.41;;;10.45;86.30
59825;BME280;45703;50.898;6.054;2023-04-28T02:28:35;99725.41;;;10.45;86.33
59825;BME280;45703;50.898;6.054;2023-04-28T02:31:05;99728.91;;;10.45;87.46
59825;BME280;45703;50.898;6.054;2023-04-28T02:33:31;99729.69;;;10.46;87.84
59825;BME280;45703;50.898;6.054;2023-04-28T02:36:00;99738.31;;;10.48;88.70
59825;BME280;45703;50.898;6.054;2023-04-28T02:38:26;99728.06;;;10.45;87.78
59825;BME280;45703;50.898;6.054;2023-04-28T02:41:03;99734.59;;;10.49;85.39
59825;BME280;45703;50.898;6.054;2023-04-28T02:43:31;99731.47;;;10.52;88.65
59825;BME280;45703;50.898;6.054;2023-04-28T02:45:57;99733.31;;;10.51;88.65
59825;BME280;45703;50.898;6.054;2023-04-28T02:48:23;99735.75;;;10.53;88.59
59825;BME280;45703;50.898;6.054;2023-04-28T02:50:49;99732.84;;;10.54;88.23
59825;BME280;45703;50.898;6.054;2023-04-28T02:53:15;99728.09;;;10.56;88.76
59825;BME280;45703;50.898;6.054;2023-04-28T02:55:40;99720.91;;;10.57;86.91
59825;BME280;45703;50.898;6.054;2023-04-28T02:58:05;99724.72;;;10.61;89.39
59825;BME280;45703;50.898;6.054;2023-04-28T03:00:31;99722.06;;;10.61;86.28
59825;BME280;45703;50.898;6.054;2023-04-28T03:02:56;99715.56;;;10.57;88.22
59825;BME280;45703;50.898;6.054;2023-04-28T03:05:22;99707.31;;;10.58;88.00
59825;BME280;45703;50.898;6.054;2023-04-28T03:07:47;99690.50;;;10.58;87.27
59825;BME280;45703;50.898;6.054;2023-04-28T03:10:12;99689.44;;;10.59;87.97
59825;BME280;45703;50.898;6.054;2023-04-28T03:12:38;99688.63;;;10.58;86.95
59825;BME280;45703;50.898;6.054;2023-04-28T03:15:04;99694.78;;;10.59;88.97
59825;BME280;45703;50.898;6.054;2023-04-28T03:17:32;99681.44;;;10.59;89.35
59825;BME280;45703;50.898;6.054;2023-04-28T03:19:58;99674.47;;;10.58;88.92
59825;BME280;45703;50.898;6.054;2023-04-28T03:22:23;99660.88;;;10.59;88.73
59825;BME280;45703;50.898;6.054;2023-04-28T03:24:48;99650.94;;;10.55;88.74
59825;BME280;45703;50.898;6.054;2023-04-28T03:27:14;99643.03;;;10.60;89.96
59825;BME280;45703;50.898;6.054;2023-04-28T03:29:39;99629.69;;;10.60;89.48
59825;BME280;45703;50.898;6.054;2023-04-28T03:32:05;99609.97;;;10.61;89.14
59825;BME280;45703;50.898;6.054;2023-04-28T03:34:31;99592.78;;;10.57;89.54
59825;BME280;45703;50.898;6.054;2023-04-28T03:36:59;99594.41;;;10.58;89.99
59825;BME280;45703;50.898;6.054;2023-04-28T03:39:24;99586.97;;;10.60;89.87
59825;BME280;45703;50.898;6.054;2023-04-28T03:41:50;99595.47;;;10.57;87.97
59825;BME280;45703;50.898;6.054;2023-04-28T03:44:25;99634.56;;;10.63;90.29
59825;BME280;45703;50.898;6.054;2023-04-28T03:46:51;99648.94;;;10.62;87.72
59825;BME280;45703;50.898;6.054;2023-04-28T03:49:51;99628.63;;;10.61;87.41
59825;BME280;45703;50.898;6.054;2023-04-28T03:52:18;99637.91;;;10.58;86.73
59825;BME280;45703;50.898;6.054;2023-04-28T03:54:44;99635.50;;;10.57;89.09
59825;BME280;45703;50.898;6.054;2023-04-28T03:57:10;99622.16;;;10.57;88.70
59825;BME280;45703;50.898;6.054;2023-04-28T03:59:35;99644.09;;;10.59;89.29
59825;BME280;45703;50.898;6.054;2023-04-28T04:02:00;99642.47;;;10.58;89.57
59825;BME280;45703;50.898;6.054;2023-04-28T04:04:26;99645.13;;;10.58;87.65
59825;BME280;45703;50.898;6.054;2023-04-28T04:06:52;99646.75;;;10.59;90.32
59825;BME280;45703;50.898;6.054;2023-04-28T04:09:17;99644.31;;;10.57;90.59
59825;BME280;45703;50.898;6.054;2023-04-28T04:11:43;99643.72;;;10.55;89.90
59825;BME280;45703;50.898;6.054;2023-04-28T04:14:08;99651.03;;;10.60;89.14
59825;BME280;45703;50.898;6.054;2023-04-28T04:16:34;99647.31;;;10.61;88.63
59825;BME280;45703;50.898;6.054;2023-04-28T04:19:00;99650.56;;;10.63;89.00
59825;BME280;45703;50.898;6.054;2023-04-28T04:21:25;99648.94;;;10.62;89.46
59825;BME280;45703;50.898;6.054;2023-04-28T04:23:52;99650.56;;;10.63;89.99
59825;BME280;45703;50.898;6.054;2023-04-28T04:26:17;99648.94;;;10.62;90.65
59825;BME280;45703;50.898;6.054;2023-04-28T04:28:43;99638.28;;;10.62;90.82
59825;BME280;45703;50.898;6.054;2023-04-28T04:31:09;99646.84;;;10.64;91.19
59825;BME280;45703;50.898;6.054;2023-04-28T04:33:35;99638.59;;;10.65;92.06
59825;BME280;45703;50.898;6.054;2023-04-28T04:36:02;99641.25;;;10.65;89.97
59825;BME280;45703;50.898;6.054;2023-04-28T04:38:28;99643.72;;;10.67;91.11
59825;BME280;45703;50.898;6.054;2023-04-28T04:40:53;99641.03;;;10.67;89.94
59825;BME280;45703;50.898;6.054;2023-04-28T04:43:18;99647.53;;;10.71;91.26
59825;BME280;45703;50.898;6.054;2023-04-28T04:45:44;99648.00;;;10.68;91.36
59825;BME280;45703;50.898;6.054;2023-04-28T04:48:10;99634.75;;;10.73;90.73
59825;BME280;45703;50.898;6.054;2023-04-28T04:50:35;99630.47;;;10.72;90.10
59825;BME280;45703;50.898;6.054;2023-04-28T04:53:01;99617.94;;;10.72;90.48
59825;BME280;45703;50.898;6.054;2023-04-28T04:55:26;99633.81;;;10.79;91.25
59825;BME280;45703;50.898;6.054;2023-04-28T04:57:52;99626.53;;;10.74;90.70
59825;BME280;45703;50.898;6.054;2023-04-28T05:00:18;99628.72;;;10.77;91.14
59825;BME280;45703;50.898;6.054;2023-04-28T05:02:43;99623.69;;;10.81;92.74
59825;BME280;45703;50.898;6.054;2023-04-28T05:05:09;99621.50;;;10.78;92.18
59825;BME280;45703;50.898;6.054;2023-04-28T05:07:34;99626.38;;;10.81;92.27
59825;BME280;45703;50.898;6.054;2023-04-28T05:10:00;99626.94;;;10.83;90.09
59825;BME280;45703;50.898;6.054;2023-04-28T05:12:25;99624.28;;;10.83;90.20
59825;BME280;45703;50.898;6.054;2023-04-28T05:14:50;99619.97;;;10.82;91.99
59825;BME280;45703;50.898;6.054;2023-04-28T05:17:16;99614.72;;;10.87;92.69
59825;BME280;45703;50.898;6.054;2023-04-28T05:19:41;99629.47;;;10.89;91.28
59825;BME280;45703;50.898;6.054;2023-04-28T05:22:07;99612.63;;;10.89;92.01
59825;BME280;45703;50.898;6.054;2023-04-28T05:24:33;99617.50;;;10.92;92.23
59825;BME280;45703;50.898;6.054;2023-04-28T05:26:58;99620.75;;;10.94;93.50
59825;BME280;45703;50.898;6.054;2023-04-28T05:29:24;99613.19;;;10.91;91.88
59825;BME280;45703;50.898;6.054;2023-04-28T05:31:49;99602.31;;;10.92;92.37
59825;BME280;45703;50.898;6.054;2023-04-28T05:34:15;99603.44;;;10.96;91.83
59825;BME280;45703;50.898;6.054;2023-04-28T05:36:40;99609.13;;;11.00;92.35
59825;BME280;45703;50.898;6.054;2023-04-28T05:39:06;99610.75;;;11.01;93.08
59825;BME280;45703;50.898;6.054;2023-04-28T05:41:32;99628.41;;;11.02;91.25
59825;BME280;45703;50.898;6.054;2023-04-28T05:43:58;99619.44;;;11.08;90.98
59825;BME280;45703;50.898;6.054;2023-04-28T05:46:23;99625.34;;;11.10;93.18
59825;BME280;45703;50.898;6.054;2023-04-28T05:48:49;99626.38;;;11.09;93.24
59825;BME280;45703;50.898;6.054;2023-04-28T05:51:14;99625.34;;;11.10;92.43
59825;BME280;45703;50.898;6.054;2023-04-28T05:53:40;99631.00;;;11.13;93.41
59825;BME280;45703;50.898;6.054;2023-04-28T05:56:08;99628.09;;;11.15;93.95
59825;BME280;45703;50.898;6.054;2023-04-28T05:58:36;99626.00;;;11.17;93.30
59825;BME280;45703;50.898;6.054;2023-04-28T06:01:02;99625.53;;;11.20;92.14
59825;BME280;45703;50.898;6.054;2023-04-28T06:03:28;99630.38;;;11.23;93.76
59825;BME280;45703;50.898;6.054;2023-04-28T06:05:53;99629.31;;;11.24;93.90
59825;BME280;45703;50.898;6.054;2023-04-28T06:08:19;99617.59;;;11.25;93.00
59825;BME280;45703;50.898;6.054;2023-04-28T06:10:49;99629.50;;;11.34;93.08
59825;BME280;45703;50.898;6.054;2023-04-28T06:13:16;99628.22;;;11.36;94.82
59825;BME280;45703;50.898;6.054;2023-04-28T06:15:41;99636.63;;;11.44;94.77
59825;BME280;45703;50.898;6.054;2023-04-28T06:18:07;99636.75;;;11.49;93.86
59825;BME280;45703;50.898;6.054;2023-04-28T06:20:34;99621.50;;;11.50;93.43
59825;BME280;45703;50.898;6.054;2023-04-28T06:22:59;99632.19;;;11.61;93.47
59825;BME280;45703;50.898;6.054;2023-04-28T06:25:37;99627.69;;;11.67;92.66
59825;BME280;45703;50.898;6.054;2023-04-28T06:28:03;99614.19;;;11.73;93.42
59825;BME280;45703;50.898;6.054;2023-04-28T06:30:34;99618.00;;;11.77;93.08
59825;BME280;45703;50.898;6.054;2023-04-28T06:33:03;99624.25;;;11.83;93.85
59825;BME280;45703;50.898;6.054;2023-04-28T06:35:33;99630.16;;;11.85;91.25
59825;BME280;45703;50.898;6.054;2023-04-28T06:38:03;99636.63;;;11.89;90.64
59825;BME280;45703;50.898;6.054;2023-04-28T06:40:30;99644.88;;;11.87;90.85
59825;BME280;45703;50.898;6.054;2023-04-28T06:43:02;99643.59;;;11.90;91.43
59825;BME280;45703;50.898;6.054;2023-04-28T06:45:34;99647.34;;;11.89;93.66
59825;BME280;45703;50.898;6.054;2023-04-28T06:48:07;99645.44;;;11.89;93.41
59825;BME280;45703;50.898;6.054;2023-04-28T06:50:36;99642.78;;;11.89;93.31
59825;BME280;45703;50.898;6.054;2023-04-28T06:53:01;99643.13;;;11.93;93.11
59825;BME280;45703;50.898;6.054;2023-04-28T06:55:26;99639.69;;;11.97;92.98
59825;BME280;45703;50.898;6.054;2023-04-28T06:57:52;99639.22;;;12.00;93.41
59825;BME280;45703;50.898;6.054;2023-04-28T07:00:17;99641.16;;;12.05;93.63
59825;BME280;45703;50.898;6.054;2023-04-28T07:02:43;99639.38;;;12.10;92.18
59825;BME280;45703;50.898;6.054;2023-04-28T07:05:08;99635.44;;;12.18;94.12
59825;BME280;45703;50.898;6.054;2023-04-28T07:07:35;99635.06;;;12.26;93.27
59825;BME280;45703;50.898;6.054;2023-04-28T07:10:07;99629.50;;;12.32;91.39
59825;BME280;45703;50.898;6.054;2023-04-28T07:12:33;99628.03;;;12.41;91.67
59825;BME280;45703;50.898;6.054;2023-04-28T07:14:58;99624.63;;;12.46;91.85
59825;BME280;45703;50.898;6.054;2023-04-28T07:20:52;99625.91;;;12.65;91.26
59825;BME280;45703;50.898;6.054;2023-04-28T07:23:40;99618.59;;;12.77;94.30
59825;BME280;45703;50.898;6.054;2023-04-28T07:26:20;99619.59;;;12.92;91.33
59825;BME280;45703;50.898;6.054;2023-04-28T07:29:02;99613.59;;;13.06;92.23
59825;BME280;45703;50.898;6.054;2023-04-28T07:31:28;99618.81;;;13.18;91.99
59825;BME280;45703;50.898;6.054;2023-04-28T07:34:02;99621.84;;;13.26;89.37
59825;BME280;45703;50.898;6.054;2023-04-28T07:36:27;99613.00;;;13.26;89.49
59825;BME280;45703;50.898;6.054;2023-04-28T07:38:53;99621.09;;;13.31;90.52
59825;BME280;45703;50.898;6.054;2023-04-28T07:41:18;99631.81;;;13.31;91.96
59825;BME280;45703;50.898;6.054;2023-04-28T07:43:44;99628.06;;;13.32;91.59
59825;BME280;45703;50.898;6.054;2023-04-28T07:46:11;99622.41;;;13.28;90.50
59825;BME280;45703;50.898;6.054;2023-04-28T07:48:37;99633.69;;;13.30;90.11
59825;BME280;45703;50.898;6.054;2023-04-28T07:51:02;99632.06;;;13.29;91.63
59825;BME280;45703;50.898;6.054;2023-04-28T07:53:28;99613.00;;;13.26;92.17
59825;BME280;45703;50.898;6.054;2023-04-28T07:55:53;99623.53;;;13.32;92.83
59825;BME280;45703;50.898;6.054;2023-04-28T07:58:19;99635.03;;;13.33;93.22
59825;BME280;45703;50.898;6.054;2023-04-28T08:00:44;99622.16;;;13.30;92.30
59825;BME280;45703;50.898;6.054;2023-04-28T08:03:10;99625.66;;;13.30;94.17
59825;BME280;45703;50.898;6.054;2023-04-28T08:05:37;99623.72;;;13.26;91.70
59825;BME280;45703;50.898;6.054;2023-04-28T08:08:02;99616.75;;;13.25;94.76
59825;BME280;45703;50.898;6.054;2023-04-28T08:10:28;99624.22;;;13.23;89.67
59825;BME280;45703;50.898;6.054;2023-04-28T08:12:53;99618.34;;;13.26;90.51
59825;BME280;45703;50.898;6.054;2023-04-28T08:15:19;99618.34;;;13.26;91.73
59825;BME280;45703;50.898;6.054;2023-04-28T08:17:44;99632.34;;;13.33;91.84
59825;BME280;45703;50.898;6.054;2023-04-28T08:20:10;99627.31;;;13.36;93.17
59825;BME280;45703;50.898;6.054;2023-04-28T08:22:38;99621.69;;;13.38;91.94
59825;BME280;45703;50.898;6.054;2023-04-28T08:25:04;99628.47;;;13.45;92.67
59825;BME280;45703;50.898;6.054;2023-04-28T08:27:29;99625.50;;;13.47;95.05
59825;BME280;45703;50.898;6.054;2023-04-28T08:29:55;99622.41;;;13.55;98.33
59825;BME280;45703;50.898;6.054;2023-04-28T08:32:20;99637.75;;;13.64;100.00
59825;BME280;45703;50.898;6.054;2023-04-28T08:34:46;99646.94;;;13.73;100.00
59825;BME280;45703;50.898;6.054;2023-04-28T08:37:11;99642.09;;;13.70;100.00
59825;BME280;45703;50.898;6.054;2023-04-28T08:39:37;99655.84;;;13.79;100.00
59825;BME280;45703;50.898;6.054;2023-04-28T08:42:03;99646.19;;;13.78;100.00
59825;BME280;45703;50.898;6.054;2023-04-28T08:44:36;99649.69;;;13.78;100.00
59825;BME280;45703;50.898;6.054;2023-04-28T08:47:07;99654.53;;;13.81;100.00
59825;BME280;45703;50.898;6.054;2023-04-28T08:49:37;99643.00;;;13.81;100.00
59825;BME280;45703;50.898;6.054;2023-04-28T08:52:11;99652.97;;;13.85;100.00
59825;BME280;45703;50.898;6.054;2023-04-28T08:54:38;99658.94;;;13.92;100.00
59825;BME280;45703;50.898;6.054;2023-04-28T08:57:07;99653.28;;;13.94;100.00
59825;BME280;45703;50.898;6.054;2023-04-28T08:59:33;99653.94;;;14.06;100.00
59825;BME280;45703;50.898;6.054;2023-04-28T09:01:58;99657.72;;;14.10;100.00
59825;BME280;45703;50.898;6.054;2023-04-28T09:04:24;99650.81;;;14.19;100.00
59825;BME280;45703;50.898;6.054;2023-04-28T09:06:50;99654.13;;;14.31;100.00
59825;BME280;45703;50.898;6.054;2023-04-28T09:14:21;99651.66;;;14.70;100.00
59825;BME280;45703;50.898;6.054;2023-04-28T09:16:47;99655.44;;;14.69;100.00
59825;BME280;45703;50.898;6.054;2023-04-28T09:19:14;99650.06;;;14.74;100.00
59825;BME280;45703;50.898;6.054;2023-04-28T09:21:55;99658.69;;;14.81;100.00
59825;BME280;45703;50.898;6.054;2023-04-28T09:24:38;99652.78;;;14.84;100.00
59825;BME280;45703;50.898;6.054;2023-04-28T09:27:11;99653.09;;;14.88;100.00
59825;BME280;45703;50.898;6.054;2023-04-28T09:29:37;99653.91;;;14.93;100.00
59825;BME280;45703;50.898;6.054;2023-04-28T09:32:17;99650.75;;;15.06;100.00
59825;BME280;45703;50.898;6.054;2023-04-28T09:34:43;99655.06;;;15.07;100.00
59825;BME280;45703;50.898;6.054;2023-04-28T09:37:19;99659.06;;;15.10;100.00
59825;BME280;45703;50.898;6.054;2023-04-28T09:39:51;99649.41;;;15.09;100.00
59825;BME280;45703;50.898;6.054;2023-04-28T09:42:37;99650.22;;;15.09;100.00
59825;BME280;45703;50.898;6.054;2023-04-28T09:45:04;99644.31;;;15.12;100.00
59825;BME280;45703;50.898;6.054;2023-04-28T09:47:31;99648.09;;;15.16;100.00
59825;BME280;45703;50.898;6.054;2023-04-28T09:49:59;99642.16;;;15.19;100.00
59825;BME280;45703;50.898;6.054;2023-04-28T09:52:25;99644.94;;;15.39;100.00
59825;BME280;45703;50.898;6.054;2023-04-28T09:54:52;99647.13;;;15.62;100.00
59825;BME280;45703;50.898;6.054;2023-04-28T09:57:18;99643.06;;;15.80;100.00
59825;BME280;45703;50.898;6.054;2023-04-28T09:59:49;99639.88;;;15.97;100.00
59825;BME280;45703;50.898;6.054;2023-04-28T10:02:16;99630.44;;;16.15;100.00
59825;BME280;45703;50.898;6.054;2023-04-28T10:04:46;99635.50;;;16.31;100.00
59825;BME280;45703;50.898;6.054;2023-04-28T10:07:14;99637.91;;;16.48;100.00
59825;BME280;45703;50.898;6.054;2023-04-28T10:09:44;99626.56;;;16.56;98.34
59825;BME280;45703;50.898;6.054;2023-04-28T10:12:13;99628.97;;;16.62;97.71
59825;BME280;45703;50.898;6.054;2023-04-28T10:14:40;99637.88;;;16.63;97.33
59825;BME280;45703;50.898;6.054;2023-04-28T10:17:06;99618.47;;;16.56;96.76
59825;BME280;45703;50.898;6.054;2023-04-28T10:19:33;99634.13;;;16.54;97.59
59825;BME280;45703;50.898;6.054;2023-04-28T10:22:28;99627.66;;;16.50;96.25
59825;BME280;45703;50.898;6.054;2023-04-28T10:27:30;99631.44;;;16.54;96.31
59825;BME280;45703;50.898;6.054;2023-04-28T10:30:34;99634.13;;;16.64;95.99
59825;BME280;45703;50.898;6.054;2023-04-28T10:35:41;99617.59;;;16.80;95.54
59825;BME280;45703;50.898;6.054;2023-04-28T10:38:11;99618.34;;;16.91;95.59
59825;BME280;45703;50.898;6.054;2023-04-28T10:40:38;99614.00;;;17.00;95.48
59825;BME280;45703;50.898;6.054;2023-04-28T10:43:05;99612.28;;;17.19;96.06
59825;BME280;45703;50.898;6.054;2023-04-28T10:48:18;99606.44;;;17.50;94.46
59825;BME280;45703;50.898;6.054;2023-04-28T10:56:23;99602.81;;;17.98;90.90
59825;BME280;45703;50.898;6.054;2023-04-28T10:58:59;99604.63;;;18.02;89.64
59825;BME280;45703;50.898;6.054;2023-04-28T11:04:14;99596.97;;;18.14;87.64
59825;BME280;45703;50.898;6.054;2023-04-28T11:06:42;99597.50;;;18.11;86.69
59825;BME280;45703;50.898;6.054;2023-04-28T11:16:59;99600.06;;;18.31;86.96
59825;BME280;45703;50.898;6.054;2023-04-28T11:19:26;99590.84;;;18.32;86.55
59825;BME280;45703;50.898;6.054;2023-04-28T11:21:54;99593.00;;;18.35;86.05
59825;BME280;45703;50.898;6.054;2023-04-28T11:24:21;99582.75;;;18.32;85.39
59825;BME280;45703;50.898;6.054;2023-04-28T11:26:47;99591.38;;;18.34;86.63
59825;BME280;45703;50.898;6.054;2023-04-28T11:29:13;99585.50;;;18.27;86.46
59825;BME280;45703;50.898;6.054;2023-04-28T11:31:40;99588.69;;;18.34;86.01
59825;BME280;45703;50.898;6.054;2023-04-28T11:34:11;99589.06;;;18.46;85.63
59825;BME280;45703;50.898;6.054;2023-04-28T11:36:40;99582.38;;;18.62;86.70
59825;BME280;45703;50.898;6.054;2023-04-28T11:39:08;99585.94;;;18.81;85.07
59825;BME280;45703;50.898;6.054;2023-04-28T11:41:35;99579.25;;;18.97;83.82
59825;BME280;45703;50.898;6.054;2023-04-28T11:44:15;99585.66;;;19.01;82.92
59825;BME280;45703;50.898;6.054;2023-04-28T11:49:21;99586.13;;;19.08;80.10
59825;BME280;45703;50.898;6.054;2023-04-28T11:51:50;99576.22;;;19.22;79.49
59825;BME280;45703;50.898;6.054;2023-04-28T11:54:24;99583.00;;;19.38;78.84
59825;BME280;45703;50.898;6.054;2023-04-28T11:56:51;99588.34;;;19.43;78.90
59825;BME280;45703;50.898;6.054;2023-04-28T11:59:17;99587.91;;;19.36;79.18
59825;BME280;45703;50.898;6.054;2023-04-28T12:01:52;99592.47;;;19.22;78.28
59825;BME280;45703;50.898;6.054;2023-04-28T12:04:31;99594.81;;;19.05;79.00
59825;BME280;45703;50.898;6.054;2023-04-28T12:07:00;99594.44;;;18.93;79.94
59825;BME280;45703;50.898;6.054;2023-04-28T12:09:27;99597.66;;;18.95;80.27
59825;BME280;45703;50.898;6.054;2023-04-28T12:12:00;99590.13;;;18.92;80.56
59825;BME280;45703;50.898;6.054;2023-04-28T12:14:27;99580.84;;;18.98;80.08
59825;BME280;45703;50.898;6.054;2023-04-28T12:16:54;99576.84;;;19.14;81.00
59825;BME280;45703;50.898;6.054;2023-04-28T12:19:21;99565.59;;;19.25;79.40
59825;BME280;45703;50.898;6.054;2023-04-28T12:22:00;99572.84;;;19.48;77.80
59825;BME280;45703;50.898;6.054;2023-04-28T12:24:26;99571.56;;;19.59;76.81
59825;BME280;45703;50.898;6.054;2023-04-28T12:26:52;99563.41;;;19.78;76.17
59825;BME280;45703;50.898;6.054;2023-04-28T12:29:40;99572.88;;;19.94;74.90
59825;BME280;45703;50.898;6.054;2023-04-28T12:32:07;99568.81;;;20.10;74.06
59825;BME280;45703;50.898;6.054;2023-04-28T12:34:34;99566.84;;;20.29;73.02
59825;BME280;45703;50.898;6.054;2023-04-28T12:37:03;99577.59;;;20.34;71.56
59825;BME280;45703;50.898;6.054;2023-04-28T12:39:29;99561.69;;;20.14;70.29
59825;BME280;45703;50.898;6.054;2023-04-28T12:41:55;99570.91;;;20.13;72.26
59825;BME280;45703;50.898;6.054;2023-04-28T12:44:23;99570.72;;;20.09;71.87
59825;BME280;45703;50.898;6.054;2023-04-28T12:46:50;99579.47;;;20.06;72.16
59825;BME280;45703;50.898;6.054;2023-04-28T12:49:15;99570.91;;;20.13;72.69
59825;BME280;45703;50.898;6.054;2023-04-28T12:51:41;99566.44;;;20.22;71.88
59825;BME280;45703;50.898;6.054;2023-04-28T12:54:06;99574.75;;;20.25;70.99
59825;BME280;45703;50.898;6.054;2023-04-28T12:56:32;99562.31;;;20.38;70.97
59825;BME280;45703;50.898;6.054;2023-04-28T12:58:59;99557.09;;;20.54;69.15
59825;BME280;45703;50.898;6.054;2023-04-28T13:01:26;99555.78;;;20.65;68.50
59825;BME280;45703;50.898;6.054;2023-04-28T13:03:52;99551.38;;;20.69;68.58
59825;BME280;45703;50.898;6.054;2023-04-28T13:06:17;99564.50;;;20.62;68.04
59825;BME280;45703;50.898;6.054;2023-04-28T13:08:43;99580.22;;;20.52;68.82
59825;BME280;45703;50.898;6.054;2023-04-28T13:11:09;99568.84;;;20.37;67.87
59825;BME280;45703;50.898;6.054;2023-04-28T13:14:07;99578.97;;;20.31;69.50
59825;BME280;45703;50.898;6.054;2023-04-28T13:16:49;99574.97;;;20.29;70.53
59825;BME280;45703;50.898;6.054;2023-04-28T13:19:19;99572.94;;;20.34;69.92
59825;BME280;45703;50.898;6.054;2023-04-28T13:21:46;99570.97;;;20.40;68.79
59825;BME280;45703;50.898;6.054;2023-04-28T13:24:35;99574.56;;;20.48;67.07
59825;BME280;45703;50.898;6.054;2023-04-28T13:27:11;99592.25;;;20.59;66.78
59825;BME280;45703;50.898;6.054;2023-04-28T13:29:37;99563.31;;;20.68;66.43
59825;BME280;45703;50.898;6.054;2023-04-28T13:32:03;99574.06;;;20.60;66.73
59825;BME280;45703;50.898;6.054;2023-04-28T13:34:29;99559.09;;;20.62;66.93
59825;BME280;45703;50.898;6.054;2023-04-28T13:36:55;99581.22;;;20.83;67.77
59825;BME280;45703;50.898;6.054;2023-04-28T13:39:21;99570.22;;;21.01;66.27
59825;BME280;45703;50.898;6.054;2023-04-28T13:41:47;99581.91;;;21.02;66.46
59825;BME280;45703;50.898;6.054;2023-04-28T13:44:13;99583.28;;;20.99;64.77
59825;BME280;45703;50.898;6.054;2023-04-28T13:46:39;99576.69;;;20.65;65.14